首页
METAR-TAF:

METAR-TAF

机场 :

阿塔蒂尔克国际机场

伊斯坦布尔 阿塔土克, 土耳其

纬度: 40-58N, 经度: 028-49E, 海拔: 48米

当前天气观测

该预报发布于33分钟前的12:20 UTC
风速7节,风向北转东北,在北转西北东北之间变化
温度 13°C
湿度 44%
气压 1026 hPa
能见度10公里或以上
1500米以下无云,无积雨云

METAR: LTBA 171220Z 02007KT 330V050 CAVOK 13/01 Q1026 NOSIG RMK RWY17L 02006KT 350V060 RWY05 06006KT 010V100 RWY23 VRB04KT

时间: 15:53 (12:53 UTC)

预报

该预报发布于2小时和13分钟前的10:40 UTC
预报有效从17日的 12点(UTC)到 18日的 18点(UTC)
风速12节,风向东北
能见度10公里或以上
1500米以下无云,无积雨云
成为
从 17日的 16点(UTC)到 17日的 19点(UTC)
散云层高于2000英尺
几率 40% :
短暂存在
从 18日的 02点(UTC)到 18日的 06点(UTC)
能見度: 4000
多云层高于1000英尺
轻雾
成为
从 18日的 07点(UTC)到 18日的 10点(UTC)
风速2节,风向多变
能见度10公里或以上
1500米以下无云,无积雨云

TAF: LTBA 171040Z 1712/1818 04012KT CAVOK BECMG 1716/1719 SCT020 PROB40 TEMPO 1802/1806 4000 BR BKN010 BECMG 1807/1810 VRB02KT CAVOK

超过4000个机场的气象观测和天气预报(METAR&TAF报告)。

可查询的气象台以黄色和红色小点在地图上表示。

将鼠标移到小点上方,可查看气象台名称。

然后点击查看天气观测和预报。

如需切换地图:点击带黑十字的绿色按钮放大地图;点击带横线的绿色按钮缩小地图;或者点击绿色箭头查看邻近地区的地图。


METAR-TAF: